createdAt,value
2018-09-03T00:01:41.102Z,8.57
2018-09-03T00:04:09.574Z,7.60
2018-09-03T00:06:38.086Z,8.87
2018-09-03T00:09:08.863Z,8.90
2018-09-03T00:11:37.366Z,7.87
2018-09-03T00:14:06.031Z,7.07
2018-09-03T00:16:34.652Z,7.90
2018-09-03T00:19:03.273Z,7.47
2018-09-03T00:21:32.036Z,7.87
2018-09-03T00:24:00.595Z,7.20
2018-09-03T00:26:29.083Z,5.70
2018-09-03T00:28:57.642Z,5.97
2018-09-03T00:31:31.496Z,5.50
2018-09-03T00:34:05.394Z,6.77
2018-09-03T00:36:39.044Z,8.23
2018-09-03T00:39:13.315Z,9.47
2018-09-03T00:41:47.235Z,6.17
2018-09-03T00:44:21.094Z,7.37
2018-09-03T00:46:54.683Z,5.80
2018-09-03T00:49:23.215Z,6.43
2018-09-03T00:51:51.728Z,6.20
2018-09-03T00:54:20.266Z,8.67
2018-09-03T00:56:48.811Z,6.30
2018-09-03T00:59:17.407Z,5.87
2018-09-03T01:01:45.934Z,6.00
2018-09-03T01:04:14.450Z,5.97
2018-09-03T01:06:42.975Z,5.67
2018-09-03T01:09:11.549Z,6.67
2018-09-03T01:11:40.051Z,6.43
2018-09-03T01:14:08.584Z,6.73
2018-09-03T01:16:37.211Z,7.87
2018-09-03T01:19:05.952Z,7.77
2018-09-03T01:21:34.926Z,6.50
2018-09-03T01:24:03.408Z,5.73
2018-09-03T01:26:31.937Z,6.77
2018-09-03T01:29:00.446Z,5.60
2018-09-03T01:31:29.007Z,6.13
2018-09-03T01:33:57.550Z,6.63
2018-09-03T01:36:26.082Z,7.70
2018-09-03T01:38:54.610Z,5.77
2018-09-03T01:41:23.191Z,6.13
2018-09-03T01:43:51.694Z,5.10
2018-09-03T01:46:20.272Z,6.73
2018-09-03T01:48:48.789Z,6.57
2018-09-03T01:51:17.314Z,5.90
2018-09-03T01:53:45.823Z,5.53
2018-09-03T01:56:14.354Z,7.00
2018-09-03T01:58:43.594Z,8.30
2018-09-03T02:01:12.203Z,6.47
2018-09-03T02:03:40.713Z,6.50
2018-09-03T02:06:09.194Z,14.77
2018-09-03T02:08:37.769Z,8.00
2018-09-03T02:11:06.421Z,5.83
2018-09-03T02:13:35.213Z,6.57
2018-09-03T02:16:03.762Z,4.73
2018-09-03T02:18:32.304Z,5.80
2018-09-03T02:21:00.868Z,4.93
2018-09-03T02:23:29.387Z,10.83
2018-09-03T02:25:57.919Z,6.00
2018-09-03T02:28:26.551Z,6.37
2018-09-03T02:30:55.066Z,6.20
2018-09-03T02:33:23.682Z,7.07
2018-09-03T02:35:52.225Z,6.00
2018-09-03T02:38:20.778Z,6.07
2018-09-03T02:40:49.307Z,8.07
2018-09-03T02:43:17.865Z,6.30
2018-09-03T02:45:46.465Z,6.93
2018-09-03T02:48:15.023Z,5.60
2018-09-03T02:50:43.498Z,6.00
2018-09-03T02:53:12.092Z,5.27
2018-09-03T02:55:40.606Z,6.80
2018-09-03T02:58:09.117Z,5.80
2018-09-03T03:00:37.678Z,5.50
2018-09-03T03:03:06.338Z,6.93
2018-09-03T03:05:34.906Z,5.97
2018-09-03T03:08:03.719Z,5.43
2018-09-03T03:10:32.217Z,5.33
2018-09-03T03:13:00.868Z,5.47
2018-09-03T03:15:29.405Z,5.30
2018-09-03T03:17:57.925Z,6.83
2018-09-03T03:20:26.522Z,5.47
2018-09-03T03:22:55.125Z,6.40
2018-09-03T03:25:23.692Z,6.83
2018-09-03T03:27:52.333Z,5.30
2018-09-03T03:30:20.909Z,6.97
2018-09-03T03:32:49.482Z,7.17
2018-09-03T03:35:18.001Z,6.27
2018-09-03T03:37:48.166Z,4.63
2018-09-03T03:40:17.692Z,6.70
2018-09-03T03:42:46.222Z,5.70
2018-09-03T03:45:14.816Z,6.37
2018-09-03T03:47:43.383Z,6.23
2018-09-03T03:50:12.004Z,4.90
2018-09-03T03:52:40.574Z,7.57
2018-09-03T03:55:09.187Z,5.90
2018-09-03T03:57:37.965Z,5.80
2018-09-03T04:00:06.871Z,6.10
2018-09-03T04:02:35.458Z,4.97
2018-09-03T04:05:04.146Z,5.07
2018-09-03T04:07:32.719Z,6.33
2018-09-03T04:10:01.323Z,5.87
2018-09-03T04:12:29.938Z,5.30
2018-09-03T04:14:58.496Z,6.03
2018-09-03T04:17:27.096Z,5.43
2018-09-03T04:20:00.123Z,5.77
2018-09-03T04:22:29.023Z,6.30
2018-09-03T04:24:57.887Z,5.20
2018-09-03T04:27:26.470Z,4.97
2018-09-03T04:29:55.103Z,5.53
2018-09-03T04:32:23.884Z,5.17
2018-09-03T04:34:52.411Z,5.10
2018-09-03T04:37:21.259Z,5.90
2018-09-03T04:39:49.894Z,6.23
2018-09-03T04:42:18.395Z,6.67
2018-09-03T04:44:47.007Z,5.23
2018-09-03T04:47:15.591Z,6.80
2018-09-03T04:49:44.156Z,7.07
2018-09-03T04:52:12.666Z,6.83
2018-09-03T04:54:41.297Z,5.70
2018-09-03T04:57:09.804Z,5.90
2018-09-03T04:59:38.372Z,5.43
2018-09-03T05:02:07.354Z,6.10
2018-09-03T05:04:35.965Z,7.17
2018-09-03T05:07:04.529Z,6.03
2018-09-03T05:09:33.403Z,5.93
2018-09-03T05:12:01.984Z,5.13
2018-09-03T05:14:30.638Z,6.63
2018-09-03T05:16:59.182Z,5.23
2018-09-03T05:19:27.828Z,6.07
2018-09-03T05:21:56.382Z,6.93
2018-09-03T05:24:24.948Z,5.27
2018-09-03T05:26:53.530Z,5.37
2018-09-03T05:29:22.153Z,5.87
2018-09-03T05:31:50.755Z,5.20
2018-09-03T05:34:19.314Z,5.47
2018-09-03T05:36:47.889Z,5.77
2018-09-03T05:39:16.490Z,5.57
2018-09-03T05:41:45.025Z,5.33
2018-09-03T05:44:13.686Z,6.10
2018-09-03T05:46:42.299Z,6.87
2018-09-03T05:49:10.946Z,5.40
2018-09-03T05:51:39.477Z,5.63
2018-09-03T05:54:08.037Z,6.57
2018-09-03T05:56:36.876Z,12.50
2018-09-03T05:59:05.735Z,6.23
2018-09-03T06:01:34.309Z,5.70
2018-09-03T06:04:03.010Z,6.33
2018-09-03T06:06:31.576Z,6.07
2018-09-03T06:09:00.235Z,5.97
2018-09-03T06:11:28.805Z,5.53
2018-09-03T06:13:57.327Z,6.97
2018-09-03T06:16:25.922Z,5.87
2018-09-03T06:18:54.411Z,6.20
2018-09-03T06:21:23.000Z,7.43
2018-09-03T06:23:51.638Z,6.37
2018-09-03T06:26:20.255Z,5.87
2018-09-03T06:28:48.859Z,6.10
2018-09-03T06:31:17.706Z,5.77
2018-09-03T06:33:46.242Z,5.73
2018-09-03T06:36:14.839Z,6.03
2018-09-03T06:38:43.790Z,6.10
2018-09-03T06:41:12.359Z,5.77
2018-09-03T06:43:41.020Z,5.13
2018-09-03T06:46:09.578Z,5.83
2018-09-03T06:48:38.186Z,6.80
2018-09-03T06:51:06.792Z,6.57
2018-09-03T06:53:35.532Z,5.97
2018-09-03T06:56:04.144Z,6.07
2018-09-03T06:58:32.967Z,5.43
2018-09-03T07:01:01.532Z,5.83
2018-09-03T07:03:30.146Z,7.23
2018-09-03T07:05:58.715Z,5.97
2018-09-03T07:08:27.247Z,6.47
2018-09-03T07:10:55.810Z,5.63
2018-09-03T07:13:24.309Z,6.40
2018-09-03T07:15:52.876Z,6.97
2018-09-03T07:18:21.399Z,7.13
2018-09-03T07:20:49.911Z,6.83
2018-09-03T07:23:18.405Z,6.00
2018-09-03T07:25:46.929Z,6.40
2018-09-03T07:28:15.454Z,5.70
2018-09-03T07:30:44.010Z,6.20
2018-09-03T07:33:12.523Z,6.03
2018-09-03T07:35:41.060Z,5.80
2018-09-03T07:38:09.599Z,5.47
2018-09-03T07:40:38.224Z,6.00
2018-09-03T07:43:06.823Z,6.83
2018-09-03T07:45:35.418Z,5.97
2018-09-03T07:48:04.336Z,6.23
2018-09-03T07:50:32.899Z,6.80
2018-09-03T07:53:01.459Z,5.43
2018-09-03T07:55:29.986Z,5.80
2018-09-03T07:57:58.521Z,5.57
2018-09-03T08:00:27.079Z,5.77
2018-09-03T08:02:55.635Z,8.10
2018-09-03T08:05:24.119Z,5.37
2018-09-03T08:07:52.622Z,5.43
2018-09-03T08:10:21.092Z,5.30
2018-09-03T08:12:49.684Z,6.00
2018-09-03T08:15:18.483Z,6.20
2018-09-03T08:17:46.990Z,5.33
2018-09-03T08:20:16.047Z,5.63
2018-09-03T08:22:44.553Z,5.97
2018-09-03T08:25:13.054Z,5.57
2018-09-03T08:27:41.618Z,5.53
2018-09-03T08:30:10.194Z,6.70
2018-09-03T08:32:38.710Z,6.03
2018-09-03T08:35:07.276Z,5.90
2018-09-03T08:37:35.856Z,5.50
2018-09-03T08:40:04.541Z,6.87
2018-09-03T08:42:32.994Z,13.67
2018-09-03T08:45:01.532Z,18.47
2018-09-03T08:47:30.038Z,19.23
2018-09-03T08:49:58.561Z,19.37
2018-09-03T08:52:27.147Z,19.13
2018-09-03T08:54:55.724Z,23.00
2018-09-03T08:57:24.282Z,20.87
2018-09-03T08:59:52.900Z,23.03
2018-09-03T09:02:21.502Z,22.23
2018-09-03T09:04:50.073Z,22.03
2018-09-03T09:07:18.682Z,22.47
2018-09-03T09:09:47.306Z,24.50
2018-09-03T09:12:16.527Z,26.20
2018-09-03T09:14:45.235Z,23.70
2018-09-03T09:17:13.879Z,22.17
2018-09-03T09:19:42.589Z,22.43
2018-09-03T09:22:11.264Z,22.90
2018-09-03T09:24:39.905Z,22.30
2018-09-03T09:27:08.625Z,24.00
2018-09-03T09:29:37.322Z,23.10
2018-09-03T09:32:06.175Z,22.33
2018-09-03T09:34:34.840Z,21.27
2018-09-03T09:37:03.633Z,21.10
2018-09-03T09:39:32.197Z,19.73
2018-09-03T09:42:00.760Z,19.27
2018-09-03T09:44:29.292Z,20.90
2018-09-03T09:46:57.831Z,19.47
2018-09-03T09:49:26.429Z,18.57
2018-09-03T09:51:54.970Z,22.10
2018-09-03T09:54:23.494Z,20.57
2018-09-03T09:56:52.071Z,19.37
2018-09-03T09:59:20.633Z,19.80
2018-09-03T10:01:49.129Z,19.67
2018-09-03T10:04:23.921Z,18.47
2018-09-03T10:06:52.439Z,17.97
2018-09-03T10:09:20.954Z,20.63
2018-09-03T10:11:49.488Z,17.93
2018-09-03T10:14:17.992Z,17.23
2018-09-03T10:16:46.499Z,18.57
2018-09-03T10:19:15.003Z,17.80
2018-09-03T10:21:43.650Z,16.40
2018-09-03T10:24:12.325Z,16.67
2018-09-03T10:26:41.002Z,16.00
2018-09-03T10:29:09.727Z,15.73
2018-09-03T10:31:38.202Z,16.67
2018-09-03T10:34:06.677Z,16.00
2018-09-03T10:36:35.222Z,15.70
2018-09-03T10:39:06.673Z,15.40
2018-09-03T10:41:35.350Z,16.33
2018-09-03T10:44:03.875Z,16.70
2018-09-03T10:46:32.382Z,17.63
2018-09-03T10:49:00.875Z,15.10
2018-09-03T10:51:29.399Z,16.77
2018-09-03T10:53:57.892Z,15.17
2018-09-03T10:56:26.399Z,15.77
2018-09-03T10:58:54.891Z,15.27
2018-09-03T11:01:23.367Z,14.13
2018-09-03T11:03:51.833Z,15.00
2018-09-03T11:06:20.328Z,16.23
2018-09-03T11:08:48.915Z,16.87
2018-09-03T11:11:17.407Z,16.30
2018-09-03T11:13:45.890Z,15.20
2018-09-03T11:16:14.389Z,13.97
2018-09-03T11:18:42.903Z,15.73
2018-09-03T11:21:11.432Z,13.63
2018-09-03T11:23:39.886Z,15.07
2018-09-03T11:26:08.371Z,14.23
2018-09-03T11:28:36.844Z,16.47
2018-09-03T11:31:05.468Z,18.07
2018-09-03T11:33:33.892Z,14.63
2018-09-03T11:36:02.374Z,14.33
2018-09-03T11:38:30.883Z,13.20
2018-09-03T11:40:59.367Z,14.93
2018-09-03T11:43:27.889Z,13.57
2018-09-03T11:45:56.374Z,13.07
2018-09-03T11:48:24.855Z,12.57
2018-09-03T11:50:53.333Z,12.87
2018-09-03T11:53:21.819Z,14.63
2018-09-03T11:55:50.315Z,13.97
2018-09-03T11:58:18.856Z,13.77
2018-09-03T12:00:47.380Z,11.87
2018-09-03T12:03:15.867Z,12.73
2018-09-03T12:05:44.401Z,13.50
2018-09-03T12:08:12.896Z,13.60
2018-09-03T12:10:41.378Z,13.57
2018-09-03T12:13:09.943Z,12.77
2018-09-03T12:15:42.085Z,12.50
2018-09-03T12:18:10.574Z,12.17
2018-09-03T12:20:39.107Z,12.83
2018-09-03T12:23:07.605Z,12.33
2018-09-03T12:25:36.099Z,11.50
2018-09-03T12:28:04.584Z,12.93
2018-09-03T12:30:33.085Z,12.40
2018-09-03T12:33:01.591Z,12.50
2018-09-03T12:35:30.109Z,11.57
2018-09-03T12:37:58.600Z,13.00
2018-09-03T12:40:27.092Z,11.50
2018-09-03T12:42:55.630Z,12.33
2018-09-03T12:45:29.030Z,11.27
2018-09-03T12:47:57.651Z,11.70
2018-09-03T12:50:26.151Z,12.10
2018-09-03T12:52:54.640Z,12.17
2018-09-03T12:55:23.155Z,11.23
2018-09-03T12:57:51.694Z,11.87
2018-09-03T13:00:20.469Z,11.30
2018-09-03T13:02:49.401Z,11.83
2018-09-03T13:05:18.963Z,11.50
2018-09-03T13:08:08.562Z,11.00
2018-09-03T13:10:37.306Z,10.50
2018-09-03T13:13:06.158Z,12.50
2018-09-03T13:15:34.776Z,10.80
2018-09-03T13:18:03.436Z,11.00
2018-09-03T13:20:32.035Z,10.60
2018-09-03T13:23:00.769Z,11.00
2018-09-03T13:25:29.250Z,10.30
2018-09-03T13:27:57.738Z,11.03
2018-09-03T13:30:26.240Z,10.63
2018-09-03T13:32:54.807Z,10.30
2018-09-03T13:35:23.294Z,10.80
2018-09-03T13:37:51.796Z,10.13
2018-09-03T13:40:20.300Z,10.97
2018-09-03T13:42:48.809Z,10.43
2018-09-03T13:45:17.316Z,9.77
2018-09-03T13:47:45.850Z,10.30
2018-09-03T13:50:14.349Z,10.40
2018-09-03T13:52:43.095Z,10.13
2018-09-03T13:55:11.667Z,10.50
2018-09-03T13:57:40.139Z,10.73
2018-09-03T14:00:09.692Z,10.27
2018-09-03T14:02:38.354Z,10.17
2018-09-03T14:05:07.065Z,9.77
2018-09-03T14:07:35.743Z,10.20
2018-09-03T14:10:04.276Z,10.50
2018-09-03T14:12:32.770Z,9.97
2018-09-03T14:15:01.320Z,10.07
2018-09-03T14:17:29.869Z,9.90
2018-09-03T14:19:58.948Z,9.70
2018-09-03T14:22:27.460Z,9.30
2018-09-03T14:24:56.078Z,10.33
2018-09-03T14:27:24.618Z,9.17
2018-09-03T14:29:53.426Z,9.43
2018-09-03T14:32:22.074Z,9.93
2018-09-03T14:34:50.807Z,10.30
2018-09-03T14:37:19.392Z,10.03
2018-09-03T14:39:48.046Z,9.53
2018-09-03T14:42:16.704Z,10.13
2018-09-03T14:44:45.330Z,9.33
2018-09-03T14:47:14.161Z,9.87
2018-09-03T14:49:43.142Z,9.57
2018-09-03T14:52:12.978Z,9.43
2018-09-03T14:54:41.710Z,10.17
2018-09-03T14:57:11.526Z,8.80
2018-09-03T14:59:40.281Z,9.70
2018-09-03T15:02:08.999Z,9.47
2018-09-03T15:04:37.952Z,9.70
2018-09-03T15:07:07.110Z,9.67
2018-09-03T15:09:35.912Z,8.80
2018-09-03T15:12:04.811Z,9.20
2018-09-03T15:14:33.561Z,9.40
2018-09-03T15:17:02.265Z,9.60
2018-09-03T15:19:30.866Z,9.20
2018-09-03T15:21:59.663Z,9.53
2018-09-03T15:24:28.508Z,9.60
2018-09-03T15:26:57.152Z,9.17
2018-09-03T15:29:26.021Z,8.77
2018-09-03T15:31:54.721Z,9.53
2018-09-03T15:34:23.471Z,8.93
2018-09-03T15:36:52.125Z,8.67
2018-09-03T15:39:20.826Z,9.20
2018-09-03T15:41:49.363Z,8.80
2018-09-03T15:44:17.976Z,9.37
2018-09-03T15:46:47.606Z,9.17
2018-09-03T15:49:16.166Z,9.03
2018-09-03T15:51:44.679Z,8.97
2018-09-03T15:54:13.362Z,9.00
2018-09-03T15:56:41.726Z,9.47
2018-09-03T15:59:11.304Z,9.30
2018-09-03T16:01:39.810Z,8.43
2018-09-03T16:04:08.315Z,9.37
2018-09-03T16:06:36.851Z,8.97
2018-09-03T16:09:08.291Z,9.17
2018-09-03T16:11:37.019Z,9.20
2018-09-03T16:14:05.657Z,9.10
2018-09-03T16:16:34.163Z,8.40
2018-09-03T16:19:02.634Z,8.70
2018-09-03T16:21:31.124Z,8.83
2018-09-03T16:23:59.613Z,8.63
2018-09-03T16:26:28.100Z,9.27
2018-09-03T16:28:56.593Z,7.90
2018-09-03T16:31:25.080Z,8.53
2018-09-03T16:33:53.624Z,9.03
2018-09-03T16:36:22.107Z,9.30
2018-09-03T16:38:50.670Z,8.97
2018-09-03T16:41:19.254Z,8.30
2018-09-03T16:43:47.743Z,8.33
2018-09-03T16:46:16.294Z,8.43
2018-09-03T16:48:44.795Z,8.80
2018-09-03T16:51:13.293Z,8.37
2018-09-03T16:53:41.833Z,8.50
2018-09-03T16:56:10.307Z,8.70
2018-09-03T16:58:38.807Z,8.80
2018-09-03T17:01:07.456Z,8.67
2018-09-03T17:03:35.896Z,8.90
2018-09-03T17:06:04.387Z,8.50
2018-09-03T17:08:32.866Z,8.97
2018-09-03T17:11:01.362Z,8.40
2018-09-03T17:13:29.883Z,9.13
2018-09-03T17:15:58.395Z,8.83
2018-09-03T17:18:26.886Z,8.60
2018-09-03T17:20:55.364Z,8.33
2018-09-03T17:23:23.858Z,8.80
2018-09-03T17:25:52.443Z,9.20
2018-09-03T17:28:21.067Z,8.77
2018-09-03T17:30:49.725Z,9.07
2018-09-03T17:33:18.471Z,9.30
2018-09-03T17:35:47.756Z,8.27
2018-09-03T17:38:16.364Z,8.70
2018-09-03T17:40:44.964Z,7.63
2018-09-03T17:43:13.634Z,8.83
2018-09-03T17:45:42.299Z,8.90
2018-09-03T17:48:10.934Z,8.20
2018-09-03T17:50:39.608Z,8.33
2018-09-03T17:53:08.108Z,8.50
2018-09-03T17:55:36.613Z,8.63
2018-09-03T17:58:05.148Z,8.47
2018-09-03T18:00:33.654Z,8.03
2018-09-03T18:03:02.192Z,7.90
2018-09-03T18:05:30.695Z,7.87
2018-09-03T18:07:59.200Z,8.73
2018-09-03T18:10:27.723Z,9.20
2018-09-03T18:12:56.224Z,8.40
2018-09-03T18:15:24.733Z,10.93
2018-09-03T18:17:53.255Z,9.30
2018-09-03T18:20:21.754Z,8.87
2018-09-03T18:22:50.278Z,9.47
2018-09-03T18:25:18.894Z,16.17
2018-09-03T18:27:47.384Z,8.90
2018-09-03T18:30:16.012Z,9.67
2018-09-03T18:32:44.450Z,10.07
2018-09-03T18:35:12.935Z,9.13
2018-09-03T18:37:41.510Z,9.50
2018-09-03T18:40:09.985Z,10.13
2018-09-03T18:42:38.467Z,9.70
2018-09-03T18:45:08.074Z,10.30
2018-09-03T18:47:36.569Z,8.33
2018-09-03T18:50:05.568Z,13.03
2018-09-03T18:52:34.449Z,9.33
2018-09-03T18:55:03.131Z,9.47
2018-09-03T18:57:32.045Z,9.67
2018-09-03T19:00:00.681Z,10.40
2018-09-03T19:02:29.319Z,9.17
2018-09-03T19:05:00.070Z,9.30
2018-09-03T19:07:28.734Z,8.50
2018-09-03T19:09:57.386Z,9.40
2018-09-03T19:12:25.920Z,10.83
2018-09-03T19:14:54.479Z,9.40
2018-09-03T19:17:23.074Z,9.57
2018-09-03T19:19:51.824Z,10.23
2018-09-03T19:22:20.508Z,10.23
2018-09-03T19:24:49.048Z,11.03
2018-09-03T19:27:17.782Z,10.33
2018-09-03T19:29:47.241Z,8.97
2018-09-03T19:32:17.233Z,9.67
2018-09-03T19:34:46.117Z,9.50
2018-09-03T19:37:14.751Z,9.43
2018-09-03T19:39:43.457Z,11.57
2018-09-03T19:42:12.254Z,11.17
2018-09-03T19:44:40.923Z,11.33
2018-09-03T19:47:10.656Z,8.50
2018-09-03T19:49:39.154Z,9.47
2018-09-03T19:52:07.691Z,9.37
2018-09-03T19:54:37.500Z,9.80
2018-09-03T19:57:07.894Z,11.67
2018-09-03T19:59:36.547Z,9.50
2018-09-03T20:02:05.108Z,10.00
2018-09-03T20:04:33.734Z,11.30
2018-09-03T20:07:02.352Z,9.70
2018-09-03T20:09:30.879Z,9.30
2018-09-03T20:11:59.526Z,10.40
2018-09-03T20:14:28.994Z,10.30
2018-09-03T20:16:57.573Z,10.97
2018-09-03T20:19:27.166Z,8.83
2018-09-03T20:21:55.947Z,10.47
2018-09-03T20:24:24.699Z,9.03
2018-09-03T20:26:53.285Z,9.23
2018-09-03T20:29:21.874Z,11.07
2018-09-03T20:31:50.614Z,10.07
2018-09-03T20:34:19.214Z,10.13
2018-09-03T20:36:47.855Z,11.47
2018-09-03T20:39:16.443Z,10.00
2018-09-03T20:41:45.726Z,9.37
2018-09-03T20:44:14.386Z,10.43
2018-09-03T20:46:42.952Z,8.97
2018-09-03T20:49:11.628Z,10.27
2018-09-03T20:51:40.356Z,8.87
2018-09-03T20:54:08.988Z,11.67
2018-09-03T20:56:37.629Z,9.47
2018-09-03T20:59:06.246Z,11.03
2018-09-03T21:01:35.773Z,11.30
2018-09-03T21:04:04.408Z,10.30
2018-09-03T21:06:33.024Z,11.37
2018-09-03T21:09:01.560Z,9.87
2018-09-03T21:11:30.158Z,10.73
2018-09-03T21:13:58.839Z,13.90
2018-09-03T21:16:27.460Z,10.70
2018-09-03T21:18:56.032Z,12.33
2018-09-03T21:21:24.583Z,10.53
2018-09-03T21:23:53.233Z,11.07
2018-09-03T21:26:21.725Z,9.87
2018-09-03T21:28:50.375Z,9.67
2018-09-03T21:31:18.947Z,9.80
2018-09-03T21:33:47.478Z,9.20
2018-09-03T21:36:16.010Z,12.93
2018-09-03T21:38:44.555Z,8.93
2018-09-03T21:41:13.150Z,9.97
2018-09-03T21:43:41.691Z,10.30
2018-09-03T21:46:10.326Z,9.80
2018-09-03T21:48:38.889Z,11.37
2018-09-03T21:51:07.409Z,9.63
2018-09-03T21:53:35.962Z,10.53
2018-09-03T21:56:04.446Z,10.30
2018-09-03T21:58:32.962Z,9.83
2018-09-03T22:01:01.507Z,10.80
2018-09-03T22:03:30.035Z,11.13
2018-09-03T22:05:58.656Z,10.77
2018-09-03T22:08:27.224Z,10.57
2018-09-03T22:10:55.750Z,11.70
2018-09-03T22:13:24.262Z,9.30
2018-09-03T22:15:52.854Z,11.37
2018-09-03T22:18:21.463Z,10.90
2018-09-03T22:20:50.009Z,10.87
2018-09-03T22:23:19.277Z,9.97
2018-09-03T22:25:47.773Z,9.53
2018-09-03T22:28:16.314Z,10.90
2018-09-03T22:30:44.854Z,10.17
2018-09-03T22:33:13.357Z,10.23
2018-09-03T22:35:41.891Z,10.43
2018-09-03T22:38:10.450Z,10.07
2018-09-03T22:40:38.975Z,10.70
2018-09-03T22:43:07.611Z,9.33
2018-09-03T22:45:36.122Z,9.17
2018-09-03T22:48:04.608Z,9.60
2018-09-03T22:50:33.686Z,9.77
2018-09-03T22:53:02.218Z,11.70
2018-09-03T22:55:30.933Z,11.00
2018-09-03T22:57:59.457Z,9.77
2018-09-03T23:00:28.058Z,11.17
2018-09-03T23:02:57.269Z,9.33
2018-09-03T23:05:25.803Z,9.93
2018-09-03T23:07:54.343Z,12.00
2018-09-03T23:10:22.918Z,11.53
2018-09-03T23:12:51.484Z,9.97
2018-09-03T23:15:19.991Z,10.60
2018-09-03T23:17:48.519Z,9.20
2018-09-03T23:20:17.027Z,10.10
2018-09-03T23:22:45.531Z,9.87
2018-09-03T23:25:14.089Z,10.27
2018-09-03T23:27:43.481Z,9.70
2018-09-03T23:30:11.979Z,9.93
2018-09-03T23:32:40.495Z,9.73
2018-09-03T23:35:09.020Z,10.53
2018-09-03T23:37:37.574Z,10.17
2018-09-03T23:40:06.807Z,10.37
2018-09-03T23:42:35.353Z,10.23
2018-09-03T23:45:03.902Z,9.67
2018-09-03T23:47:32.414Z,9.67
2018-09-03T23:50:00.934Z,9.37
2018-09-03T23:52:29.467Z,9.80
2018-09-03T23:54:58.031Z,9.47
2018-09-03T23:57:28.361Z,10.00
2018-09-03T23:59:56.861Z,10.27
